createdAt,value
2019-02-26T00:00:34.123Z,12.90
2019-02-26T00:01:34.101Z,13.90
2019-02-26T00:03:04.836Z,12.40
2019-02-26T00:04:04.551Z,12.60
2019-02-26T00:05:34.998Z,11.70
2019-02-26T00:06:34.984Z,13.40
2019-02-26T00:08:05.499Z,12.60
2019-02-26T00:09:05.506Z,12.80
2019-02-26T00:10:37.257Z,13.30
2019-02-26T00:11:37.986Z,14.70
2019-02-26T00:13:07.387Z,11.80
2019-02-26T00:14:07.361Z,14.30
2019-02-26T00:15:38.528Z,15.40
2019-02-26T00:16:39.976Z,15.80
2019-02-26T00:18:11.547Z,13.10
2019-02-26T00:19:09.824Z,14.30
2019-02-26T00:20:41.397Z,15.70
2019-02-26T00:21:40.789Z,15.90
2019-02-26T00:22:41.225Z,15.90
2019-02-26T00:23:42.020Z,15.20
2019-02-26T00:24:42.633Z,14.70
2019-02-26T00:25:40.743Z,15.40
2019-02-26T00:26:42.517Z,14.80
2019-02-26T00:27:40.721Z,16.80
2019-02-26T00:28:41.543Z,14.40
2019-02-26T00:29:40.690Z,15.20
2019-02-26T00:30:42.385Z,14.70
2019-02-26T00:31:40.670Z,14.70
2019-02-26T00:32:40.668Z,15.20
2019-02-26T00:33:40.670Z,15.50
2019-02-26T00:34:41.149Z,15.50
2019-02-26T00:35:41.641Z,14.50
2019-02-26T00:36:40.616Z,16.30
2019-02-26T00:37:40.610Z,15.50
2019-02-26T00:38:42.339Z,15.00
2019-02-26T00:39:40.588Z,14.10
2019-02-26T00:40:41.405Z,14.40
2019-02-26T00:41:40.564Z,13.70
2019-02-26T00:42:40.558Z,14.70
2019-02-26T00:43:40.559Z,13.40
2019-02-26T00:44:40.545Z,13.30
2019-02-26T00:45:40.525Z,14.00
2019-02-26T00:46:40.510Z,13.10
2019-02-26T00:47:41.189Z,14.60
2019-02-26T00:48:41.424Z,14.00
2019-02-26T00:49:41.968Z,12.50
2019-02-26T00:50:40.494Z,14.00
2019-02-26T00:51:44.319Z,14.50
2019-02-26T00:52:41.464Z,13.80
2019-02-26T00:53:40.444Z,13.60
2019-02-26T00:54:40.427Z,13.00
2019-02-26T00:55:40.433Z,12.80
2019-02-26T00:56:41.112Z,12.90
2019-02-26T00:57:42.919Z,13.00
2019-02-26T00:58:41.538Z,12.80
2019-02-26T00:59:41.264Z,13.10
2019-02-26T01:00:40.363Z,13.60
2019-02-26T01:01:44.091Z,12.80
2019-02-26T01:02:41.342Z,13.50
2019-02-26T01:03:43.056Z,12.80
2019-02-26T01:04:41.570Z,12.40
2019-02-26T01:05:40.931Z,12.90
2019-02-26T01:06:40.298Z,12.80
2019-02-26T01:07:41.995Z,13.50
2019-02-26T01:08:42.512Z,13.60
2019-02-26T01:09:40.277Z,15.40
2019-02-26T01:10:41.585Z,15.40
2019-02-26T01:11:40.256Z,14.60
2019-02-26T01:12:42.479Z,14.70
2019-02-26T01:13:40.235Z,14.90
2019-02-26T01:14:41.380Z,14.70
2019-02-26T01:15:40.203Z,14.50
2019-02-26T01:16:42.073Z,15.20
2019-02-26T01:17:42.171Z,13.70
2019-02-26T01:18:42.063Z,14.90
2019-02-26T01:19:40.731Z,14.90
2019-02-26T01:20:40.150Z,14.60
2019-02-26T01:21:40.139Z,14.80
2019-02-26T01:22:40.246Z,13.80
2019-02-26T01:23:40.117Z,13.60
2019-02-26T01:24:40.110Z,14.10
2019-02-26T01:25:40.113Z,13.50
2019-02-26T01:26:42.527Z,14.40
2019-02-26T01:27:41.399Z,13.90
2019-02-26T01:28:44.119Z,13.60
2019-02-26T01:29:41.064Z,12.90
2019-02-26T01:30:40.049Z,14.30
2019-02-26T01:31:40.034Z,13.70
2019-02-26T01:32:40.022Z,13.50
2019-02-26T01:33:40.012Z,13.50
2019-02-26T01:34:40.553Z,12.00
2019-02-26T01:35:39.992Z,12.60
2019-02-26T01:36:40.403Z,13.10
2019-02-26T01:37:39.974Z,12.60
2019-02-26T01:38:41.764Z,12.30
2019-02-26T01:39:42.344Z,13.60
2019-02-26T01:40:43.592Z,11.30
2019-02-26T01:41:43.383Z,12.00
2019-02-26T01:42:40.919Z,12.90
2019-02-26T01:43:39.906Z,12.10
2019-02-26T01:44:41.717Z,13.00
2019-02-26T01:45:39.887Z,12.30
2019-02-26T01:46:41.120Z,12.00
2019-02-26T01:47:40.510Z,11.50
2019-02-26T01:48:41.286Z,12.10
2019-02-26T01:49:41.795Z,11.50
2019-02-26T01:50:40.648Z,11.90
2019-02-26T01:51:39.829Z,11.50
2019-02-26T01:52:39.812Z,12.40
2019-02-26T01:53:39.813Z,11.80
2019-02-26T01:54:39.793Z,10.80
2019-02-26T01:55:41.397Z,11.30
2019-02-26T01:56:39.776Z,11.50
2019-02-26T01:57:42.754Z,11.60
2019-02-26T01:58:39.759Z,11.50
2019-02-26T01:59:39.751Z,11.50
2019-02-26T02:00:40.925Z,10.70
2019-02-26T02:01:42.049Z,10.70
2019-02-26T02:02:39.707Z,11.00
2019-02-26T02:03:39.695Z,10.80
2019-02-26T02:04:41.205Z,10.70
2019-02-26T02:05:39.700Z,11.10
2019-02-26T02:06:41.338Z,11.50
2019-02-26T02:07:39.657Z,10.50
2019-02-26T02:08:43.441Z,10.60
2019-02-26T02:09:39.630Z,11.20
2019-02-26T02:10:39.620Z,10.60
2019-02-26T02:11:40.738Z,10.70
2019-02-26T02:12:41.458Z,10.70
2019-02-26T02:13:41.365Z,10.50
2019-02-26T02:14:39.587Z,9.80
2019-02-26T02:15:40.008Z,10.60
2019-02-26T02:16:39.562Z,9.60
2019-02-26T02:17:40.115Z,10.70
2019-02-26T02:18:43.659Z,10.20
2019-02-26T02:19:39.528Z,10.30
2019-02-26T02:20:39.524Z,9.50
2019-02-26T02:21:39.505Z,10.00
2019-02-26T02:22:40.373Z,10.00
2019-02-26T02:23:39.495Z,10.40
2019-02-26T02:24:43.485Z,9.30
2019-02-26T02:25:40.888Z,9.40
2019-02-26T02:26:41.098Z,9.50
2019-02-26T02:27:39.449Z,10.20
2019-02-26T02:28:39.439Z,9.70
2019-02-26T02:29:41.811Z,9.80
2019-02-26T02:30:39.410Z,9.30
2019-02-26T02:31:40.223Z,10.20
2019-02-26T02:32:39.395Z,9.00
2019-02-26T02:33:39.387Z,9.40
2019-02-26T02:34:40.884Z,9.60
2019-02-26T02:35:39.366Z,9.80
2019-02-26T02:36:39.349Z,9.50
2019-02-26T02:37:39.339Z,9.40
2019-02-26T02:38:39.325Z,9.70
2019-02-26T02:39:39.327Z,9.40
2019-02-26T02:40:40.175Z,9.10
2019-02-26T02:41:42.198Z,9.20
2019-02-26T02:42:40.781Z,9.00
2019-02-26T02:43:39.280Z,9.10
2019-02-26T02:44:41.313Z,8.80
2019-02-26T02:45:39.260Z,9.10
2019-02-26T02:46:41.685Z,9.30
2019-02-26T02:47:39.252Z,9.50
2019-02-26T02:48:39.218Z,8.90
2019-02-26T02:49:39.942Z,8.10
2019-02-26T02:50:39.197Z,8.70
2019-02-26T02:51:39.612Z,9.30
2019-02-26T02:52:39.175Z,8.60
2019-02-26T02:53:39.163Z,8.80
2019-02-26T02:54:41.104Z,9.40
2019-02-26T02:55:40.413Z,9.20
2019-02-26T02:56:41.654Z,8.60
2019-02-26T02:57:39.122Z,8.70
2019-02-26T02:58:41.778Z,9.00
2019-02-26T02:59:42.055Z,8.80
2019-02-26T03:00:39.094Z,8.30
2019-02-26T03:01:39.085Z,8.80
2019-02-26T03:02:42.784Z,8.60
2019-02-26T03:03:39.057Z,8.90
2019-02-26T03:04:39.053Z,8.90
2019-02-26T03:05:41.304Z,8.50
2019-02-26T03:06:39.025Z,8.00
2019-02-26T03:07:39.021Z,8.20
2019-02-26T03:08:39.882Z,8.50
2019-02-26T03:09:40.700Z,8.70
2019-02-26T03:10:40.159Z,8.00
2019-02-26T03:11:42.012Z,8.40
2019-02-26T03:12:39.976Z,8.90
2019-02-26T03:13:40.331Z,8.20
2019-02-26T03:14:41.408Z,8.10
2019-02-26T03:15:38.930Z,8.30
2019-02-26T03:16:41.949Z,8.00
2019-02-26T03:17:38.934Z,8.30
2019-02-26T03:18:38.900Z,8.00
2019-02-26T03:19:41.565Z,7.50
2019-02-26T03:20:40.269Z,7.70
2019-02-26T03:21:38.866Z,7.60
2019-02-26T03:22:41.965Z,7.60
2019-02-26T03:23:41.216Z,7.90
2019-02-26T03:24:38.836Z,7.50
2019-02-26T03:25:38.842Z,7.60
2019-02-26T03:26:38.814Z,7.60
2019-02-26T03:27:42.013Z,7.50
2019-02-26T03:28:39.990Z,8.30
2019-02-26T03:29:38.781Z,8.10
2019-02-26T03:30:43.631Z,7.70
2019-02-26T03:31:45.282Z,8.00
2019-02-26T03:32:41.261Z,8.60
2019-02-26T03:33:39.775Z,7.50
2019-02-26T03:34:38.746Z,7.00
2019-02-26T03:35:38.718Z,8.30
2019-02-26T03:36:40.850Z,7.50
2019-02-26T03:37:38.697Z,7.60
2019-02-26T03:38:40.872Z,7.60
2019-02-26T03:39:39.703Z,7.90
2019-02-26T03:40:38.690Z,7.40
2019-02-26T03:41:38.656Z,8.00
2019-02-26T03:42:40.955Z,7.80
2019-02-26T03:43:39.352Z,7.70
2019-02-26T03:44:38.633Z,7.30
2019-02-26T03:45:38.614Z,7.60
2019-02-26T03:46:38.603Z,7.40
2019-02-26T03:47:40.635Z,7.80
2019-02-26T03:48:38.597Z,7.40
2019-02-26T03:49:41.696Z,7.30
2019-02-26T03:50:38.559Z,6.90
2019-02-26T03:51:39.703Z,7.40
2019-02-26T03:52:38.561Z,7.70
2019-02-26T03:53:39.138Z,7.10
2019-02-26T03:54:40.264Z,7.20
2019-02-26T03:55:39.566Z,6.80
2019-02-26T03:56:38.495Z,7.10
2019-02-26T03:57:41.315Z,6.80
2019-02-26T03:58:39.486Z,7.10
2019-02-26T03:59:38.469Z,6.90
2019-02-26T04:00:41.028Z,7.50
2019-02-26T04:01:38.455Z,7.10
2019-02-26T04:02:39.914Z,7.00
2019-02-26T04:03:39.563Z,6.80
2019-02-26T04:04:38.411Z,7.00
2019-02-26T04:05:38.408Z,7.30
2019-02-26T04:06:39.019Z,7.60
2019-02-26T04:07:38.380Z,6.90
2019-02-26T04:08:38.373Z,7.40
2019-02-26T04:09:41.839Z,7.40
2019-02-26T04:10:38.351Z,7.30
2019-02-26T04:11:39.338Z,7.30
2019-02-26T04:12:42.178Z,7.00
2019-02-26T04:13:41.053Z,7.10
2019-02-26T04:14:38.304Z,7.30
2019-02-26T04:15:38.450Z,6.70
2019-02-26T04:16:40.445Z,7.00
2019-02-26T04:17:40.164Z,7.10
2019-02-26T04:18:38.268Z,6.80
2019-02-26T04:19:38.246Z,7.00
2019-02-26T04:20:43.399Z,6.70
2019-02-26T04:21:39.229Z,6.70
2019-02-26T04:22:40.159Z,7.00
2019-02-26T04:23:38.844Z,7.10
2019-02-26T04:24:38.210Z,7.30
2019-02-26T04:25:38.176Z,6.90
2019-02-26T04:26:38.174Z,7.40
2019-02-26T04:27:39.331Z,7.30
2019-02-26T04:28:40.158Z,7.20
2019-02-26T04:29:40.638Z,7.00
2019-02-26T04:30:39.354Z,7.60
2019-02-26T04:31:38.114Z,6.90
2019-02-26T04:32:40.732Z,6.90
2019-02-26T04:33:40.722Z,7.10
2019-02-26T04:34:38.078Z,7.40
2019-02-26T04:35:38.077Z,7.10
2019-02-26T04:36:41.610Z,7.00
2019-02-26T04:37:38.596Z,6.70
2019-02-26T04:38:38.043Z,7.20
2019-02-26T04:39:40.340Z,7.00
2019-02-26T04:40:38.949Z,6.60
2019-02-26T04:41:38.026Z,7.40
2019-02-26T04:42:40.446Z,7.00
2019-02-26T04:43:38.857Z,7.50
2019-02-26T04:44:37.974Z,7.20
2019-02-26T04:45:37.967Z,7.50
2019-02-26T04:46:39.489Z,7.10
2019-02-26T04:47:37.964Z,7.20
2019-02-26T04:48:37.924Z,7.30
2019-02-26T04:49:40.199Z,7.00
2019-02-26T04:50:38.627Z,6.90
2019-02-26T04:51:41.539Z,6.80
2019-02-26T04:52:40.660Z,6.90
2019-02-26T04:53:38.878Z,7.90
2019-02-26T04:54:39.554Z,7.50
2019-02-26T04:55:39.103Z,7.30
2019-02-26T04:56:40.158Z,6.90
2019-02-26T04:57:42.083Z,7.00
2019-02-26T04:58:39.784Z,7.10
2019-02-26T04:59:40.429Z,6.90
2019-02-26T05:00:38.659Z,6.70
2019-02-26T05:01:37.785Z,7.00
2019-02-26T05:02:37.781Z,6.40
2019-02-26T05:03:37.765Z,6.70
2019-02-26T05:04:40.034Z,6.60
2019-02-26T05:05:37.742Z,7.40
2019-02-26T05:06:37.747Z,7.10
2019-02-26T05:07:38.510Z,7.00
2019-02-26T05:08:40.108Z,6.50
2019-02-26T05:09:37.700Z,6.40
2019-02-26T05:10:37.696Z,7.40
2019-02-26T05:11:40.636Z,6.50
2019-02-26T05:12:40.105Z,6.90
2019-02-26T05:13:37.675Z,6.90
2019-02-26T05:14:37.645Z,6.40
2019-02-26T05:15:37.635Z,6.70
2019-02-26T05:16:40.176Z,7.40
2019-02-26T05:17:37.628Z,6.80
2019-02-26T05:18:37.604Z,7.00
2019-02-26T05:19:39.573Z,6.70
2019-02-26T05:20:40.080Z,6.60
2019-02-26T05:21:38.574Z,7.20
2019-02-26T05:22:37.561Z,6.30
2019-02-26T05:23:37.552Z,6.30
2019-02-26T05:24:38.683Z,6.60
2019-02-26T05:25:39.652Z,6.60
2019-02-26T05:26:37.516Z,6.70
2019-02-26T05:27:40.107Z,6.90
2019-02-26T05:28:40.308Z,6.90
2019-02-26T05:29:40.424Z,6.50
2019-02-26T05:30:38.296Z,7.00
2019-02-26T05:31:37.744Z,6.40
2019-02-26T05:32:37.449Z,7.00
2019-02-26T05:33:37.442Z,6.90
2019-02-26T05:34:39.677Z,6.20
2019-02-26T05:35:38.751Z,6.90
2019-02-26T05:36:40.293Z,6.00
2019-02-26T05:37:40.978Z,6.60
2019-02-26T05:38:37.714Z,6.70
2019-02-26T05:39:37.375Z,6.80
2019-02-26T05:40:39.910Z,6.20
2019-02-26T05:41:37.358Z,6.90
2019-02-26T05:42:37.341Z,7.10
2019-02-26T05:43:37.332Z,6.50
2019-02-26T05:44:37.320Z,6.50
2019-02-26T05:45:37.313Z,6.70
2019-02-26T05:46:37.298Z,6.20
2019-02-26T05:47:37.293Z,6.20
2019-02-26T05:48:39.830Z,6.40
2019-02-26T05:49:38.774Z,6.50
2019-02-26T05:50:38.448Z,6.20
2019-02-26T05:51:38.227Z,6.50
2019-02-26T05:52:37.241Z,6.60
2019-02-26T05:53:37.233Z,6.50
2019-02-26T05:54:37.211Z,6.80
2019-02-26T05:55:37.199Z,6.60
2019-02-26T05:56:40.722Z,6.70
2019-02-26T05:57:37.190Z,6.60
2019-02-26T05:58:39.442Z,6.60
2019-02-26T05:59:37.156Z,6.30
2019-02-26T06:00:37.146Z,6.30
2019-02-26T06:01:37.134Z,6.20
2019-02-26T06:02:39.499Z,6.40
2019-02-26T06:03:38.541Z,6.00
2019-02-26T06:04:38.408Z,6.70
2019-02-26T06:05:41.125Z,6.20
2019-02-26T06:06:38.086Z,5.90
2019-02-26T06:07:38.918Z,6.10
2019-02-26T06:08:39.257Z,5.70
2019-02-26T06:09:37.051Z,6.10
2019-02-26T06:10:37.061Z,6.30
2019-02-26T06:11:39.988Z,6.20
2019-02-26T06:12:38.987Z,5.90
2019-02-26T06:13:38.243Z,6.30
2019-02-26T06:14:39.191Z,6.80
2019-02-26T06:15:36.987Z,6.60
2019-02-26T06:16:36.994Z,6.80
2019-02-26T06:17:40.533Z,7.00
2019-02-26T06:18:36.954Z,6.60
2019-02-26T06:19:37.799Z,6.40
2019-02-26T06:20:36.947Z,6.60
2019-02-26T06:21:39.650Z,6.80
2019-02-26T06:22:36.909Z,6.10
2019-02-26T06:23:39.200Z,6.40
2019-02-26T06:24:38.099Z,5.90
2019-02-26T06:25:36.881Z,6.30
2019-02-26T06:26:38.143Z,6.10
2019-02-26T06:27:36.874Z,6.30
2019-02-26T06:28:40.180Z,6.30
2019-02-26T06:29:37.403Z,6.30
2019-02-26T06:30:36.827Z,6.50
2019-02-26T06:31:37.660Z,6.40
2019-02-26T06:32:39.141Z,6.50
2019-02-26T06:33:38.462Z,6.20
2019-02-26T06:34:36.780Z,6.40
2019-02-26T06:35:38.488Z,6.60
2019-02-26T06:36:36.762Z,6.50
2019-02-26T06:37:37.888Z,6.30
2019-02-26T06:38:36.748Z,6.20
2019-02-26T06:39:36.745Z,6.40
2019-02-26T06:40:39.123Z,6.20
2019-02-26T06:41:39.591Z,6.50
2019-02-26T06:42:38.043Z,6.20
2019-02-26T06:43:39.645Z,6.40
2019-02-26T06:44:36.874Z,6.20
2019-02-26T06:45:37.965Z,6.40
2019-02-26T06:46:38.291Z,6.10
2019-02-26T06:47:36.640Z,6.20
2019-02-26T06:48:36.640Z,7.00
2019-02-26T06:49:36.639Z,6.50
2019-02-26T06:50:38.578Z,6.00
2019-02-26T06:51:36.627Z,6.40
2019-02-26T06:52:39.438Z,6.40
2019-02-26T06:53:36.574Z,6.40
2019-02-26T06:54:36.568Z,6.40
2019-02-26T06:55:36.559Z,6.10
2019-02-26T06:56:41.500Z,6.10
2019-02-26T06:57:38.798Z,5.90
2019-02-26T06:58:38.139Z,6.70
2019-02-26T06:59:36.964Z,6.30
2019-02-26T07:00:36.498Z,6.10
2019-02-26T07:01:37.936Z,6.80
2019-02-26T07:02:36.479Z,6.40
2019-02-26T07:03:40.340Z,6.10
2019-02-26T07:04:36.459Z,6.40
2019-02-26T07:05:36.449Z,5.80
2019-02-26T07:06:37.997Z,6.00
2019-02-26T07:07:36.445Z,7.00
2019-02-26T07:08:36.417Z,6.50
2019-02-26T07:09:37.387Z,6.20
2019-02-26T07:10:36.389Z,6.40
2019-02-26T07:11:37.881Z,6.40
2019-02-26T07:12:38.255Z,6.10
2019-02-26T07:13:38.585Z,6.20
2019-02-26T07:14:36.361Z,6.20
2019-02-26T07:15:36.335Z,6.60
2019-02-26T07:16:39.826Z,5.90
2019-02-26T07:17:38.351Z,6.20
2019-02-26T07:18:36.321Z,6.30
2019-02-26T07:19:38.020Z,5.90
2019-02-26T07:20:39.370Z,6.50
2019-02-26T07:21:38.027Z,6.60
2019-02-26T07:22:36.273Z,6.50
2019-02-26T07:23:38.191Z,6.50
2019-02-26T07:24:38.347Z,6.50
2019-02-26T07:25:38.456Z,6.20
2019-02-26T07:26:38.516Z,6.50
2019-02-26T07:27:38.338Z,6.10
2019-02-26T07:28:36.208Z,6.40
2019-02-26T07:29:39.854Z,6.70
2019-02-26T07:30:37.575Z,6.30
2019-02-26T07:31:36.170Z,6.40
2019-02-26T07:32:38.259Z,6.50
2019-02-26T07:33:37.117Z,6.20
2019-02-26T07:34:36.130Z,6.10
2019-02-26T07:35:37.385Z,6.50
2019-02-26T07:36:36.128Z,6.30
2019-02-26T07:37:38.132Z,6.60
2019-02-26T07:38:41.104Z,6.40
2019-02-26T07:39:37.080Z,6.90
2019-02-26T07:40:38.638Z,6.80
2019-02-26T07:41:36.060Z,7.50
2019-02-26T07:42:37.267Z,7.30
2019-02-26T07:43:38.717Z,7.00
2019-02-26T07:44:36.086Z,7.60
2019-02-26T07:45:36.134Z,7.40
2019-02-26T07:46:37.555Z,7.50
2019-02-26T07:47:36.450Z,7.20
2019-02-26T07:48:35.980Z,6.80
2019-02-26T07:49:35.976Z,6.90
2019-02-26T07:50:38.267Z,6.50
2019-02-26T07:51:38.046Z,6.80
2019-02-26T07:52:35.943Z,7.10
2019-02-26T07:53:35.926Z,7.00
2019-02-26T07:54:39.453Z,7.50
2019-02-26T07:55:37.672Z,8.10
2019-02-26T07:56:35.898Z,7.40
2019-02-26T07:57:35.936Z,7.50
2019-02-26T07:58:36.802Z,7.30
2019-02-26T07:59:36.950Z,7.30
2019-02-26T08:00:37.690Z,7.20
2019-02-26T08:01:37.625Z,7.50
2019-02-26T08:02:37.268Z,7.10
2019-02-26T08:03:35.818Z,7.30
2019-02-26T08:04:36.350Z,6.90
2019-02-26T08:05:35.797Z,7.30
2019-02-26T08:06:36.609Z,7.30
2019-02-26T08:07:35.782Z,7.20
2019-02-26T08:08:37.445Z,6.80
2019-02-26T08:09:35.757Z,6.80
2019-02-26T08:10:39.384Z,6.80
2019-02-26T08:11:36.798Z,7.10
2019-02-26T08:12:38.054Z,6.90
2019-02-26T08:13:36.600Z,7.10
2019-02-26T08:14:35.701Z,6.90
2019-02-26T08:15:37.490Z,6.80
2019-02-26T08:16:35.696Z,7.70
2019-02-26T08:17:35.676Z,8.00
2019-02-26T08:18:35.662Z,7.70
2019-02-26T08:19:37.574Z,7.30
2019-02-26T08:20:37.554Z,7.50
2019-02-26T08:21:35.640Z,7.90
2019-02-26T08:22:36.301Z,7.80
2019-02-26T08:23:35.610Z,7.80
2019-02-26T08:24:35.593Z,6.90
2019-02-26T08:25:35.588Z,7.60
2019-02-26T08:26:35.575Z,8.50
2019-02-26T08:27:37.708Z,7.30
2019-02-26T08:28:36.980Z,7.50
2019-02-26T08:29:36.213Z,7.20
2019-02-26T08:30:35.528Z,7.90
2019-02-26T08:31:35.518Z,7.70
2019-02-26T08:32:35.506Z,7.20
2019-02-26T08:33:35.573Z,8.10
2019-02-26T08:34:39.105Z,7.80
2019-02-26T08:35:35.475Z,8.10
2019-02-26T08:36:35.463Z,7.80
2019-02-26T08:37:35.456Z,7.40
2019-02-26T08:38:35.449Z,8.10
2019-02-26T08:39:35.678Z,8.20
2019-02-26T08:40:35.427Z,8.20
2019-02-26T08:41:35.573Z,8.40
2019-02-26T08:42:35.401Z,7.80
2019-02-26T08:43:35.388Z,8.40
2019-02-26T08:44:35.395Z,9.00
2019-02-26T08:45:35.368Z,8.50
2019-02-26T08:46:37.346Z,8.80
2019-02-26T08:47:35.353Z,8.90
2019-02-26T08:48:35.344Z,8.20
2019-02-26T08:49:37.840Z,8.50
2019-02-26T08:50:36.282Z,8.40
2019-02-26T08:51:35.311Z,8.50
2019-02-26T08:52:35.298Z,8.40
2019-02-26T08:53:35.280Z,8.20
2019-02-26T08:54:35.782Z,8.50
2019-02-26T08:55:35.266Z,9.20
2019-02-26T08:56:36.266Z,9.90
2019-02-26T08:57:35.238Z,10.40
2019-02-26T08:58:35.236Z,10.30
2019-02-26T08:59:35.215Z,10.90
2019-02-26T09:00:35.219Z,10.50
2019-02-26T09:01:35.199Z,10.80
2019-02-26T09:02:35.189Z,10.50
2019-02-26T09:03:40.801Z,10.40
2019-02-26T09:04:38.331Z,10.40
2019-02-26T09:05:36.770Z,11.30
2019-02-26T09:06:35.144Z,10.10
2019-02-26T09:07:35.138Z,10.70
2019-02-26T09:08:36.238Z,10.90
2019-02-26T09:09:35.120Z,10.60
2019-02-26T09:10:36.445Z,10.80
2019-02-26T09:11:36.965Z,10.60
2019-02-26T09:12:35.084Z,10.90
2019-02-26T09:13:36.185Z,10.70
2019-02-26T09:14:37.659Z,11.40
2019-02-26T09:15:38.441Z,10.90
2019-02-26T09:16:35.046Z,11.00
2019-02-26T09:17:37.004Z,11.30
2019-02-26T09:18:37.905Z,11.30
2019-02-26T09:19:36.030Z,11.30
2019-02-26T09:20:35.004Z,11.00
2019-02-26T09:21:36.903Z,11.40
2019-02-26T09:22:34.974Z,11.70
2019-02-26T09:23:34.959Z,11.10
2019-02-26T09:24:34.953Z,10.60
2019-02-26T09:25:34.940Z,10.50
2019-02-26T09:26:34.928Z,11.40
2019-02-26T09:27:42.566Z,11.20
2019-02-26T09:28:35.911Z,14.30
2019-02-26T09:29:36.662Z,11.20
2019-02-26T09:30:35.913Z,13.60
2019-02-26T09:31:34.945Z,21.50
2019-02-26T09:32:36.955Z,19.80
2019-02-26T09:33:35.545Z,21.20
2019-02-26T09:34:37.222Z,21.70
2019-02-26T09:35:34.832Z,22.90
2019-02-26T09:36:34.828Z,23.70
2019-02-26T09:37:34.818Z,24.50
2019-02-26T09:38:34.799Z,23.30
2019-02-26T09:39:36.517Z,24.30
2019-02-26T09:40:34.777Z,26.30
2019-02-26T09:41:35.538Z,26.60
2019-02-26T09:42:34.756Z,26.70
2019-02-26T09:43:36.198Z,27.20
2019-02-26T09:44:35.919Z,27.40
2019-02-26T09:45:34.737Z,28.50
2019-02-26T09:46:36.349Z,29.70
2019-02-26T09:47:34.709Z,29.80
2019-02-26T09:48:35.920Z,30.60
2019-02-26T09:49:35.748Z,31.00
2019-02-26T09:50:36.751Z,30.80
2019-02-26T09:51:35.250Z,31.80
2019-02-26T09:52:34.656Z,29.90
2019-02-26T09:53:34.650Z,32.10
2019-02-26T09:54:37.591Z,31.00
2019-02-26T09:55:34.625Z,31.20
2019-02-26T09:56:34.611Z,31.80
2019-02-26T09:57:34.618Z,31.20
2019-02-26T09:58:34.585Z,31.70
2019-02-26T09:59:35.948Z,30.40
2019-02-26T10:00:34.565Z,31.70
2019-02-26T10:01:35.499Z,30.20
2019-02-26T10:02:34.547Z,29.50
2019-02-26T10:03:38.565Z,29.80
2019-02-26T10:04:34.529Z,28.50
2019-02-26T10:05:34.510Z,29.20
2019-02-26T10:06:35.038Z,28.00
2019-02-26T10:07:36.228Z,28.70
2019-02-26T10:08:34.490Z,27.50
2019-02-26T10:09:36.850Z,27.00
2019-02-26T10:10:36.934Z,28.40
2019-02-26T10:11:34.447Z,26.70
2019-02-26T10:12:35.202Z,27.10
2019-02-26T10:13:34.428Z,26.10
2019-02-26T10:14:35.812Z,28.10
2019-02-26T10:15:35.458Z,27.80
2019-02-26T10:16:34.394Z,26.60
2019-02-26T10:17:35.664Z,25.80
2019-02-26T10:18:34.375Z,26.40
2019-02-26T10:19:35.707Z,26.20
2019-02-26T10:20:34.353Z,25.70
2019-02-26T10:21:34.931Z,24.60
2019-02-26T10:22:36.305Z,24.80
2019-02-26T10:23:34.320Z,24.50
2019-02-26T10:24:35.303Z,25.20
2019-02-26T10:25:37.035Z,25.30
2019-02-26T10:26:36.568Z,24.40
2019-02-26T10:27:36.183Z,23.80
2019-02-26T10:28:37.290Z,24.20
2019-02-26T10:29:37.379Z,23.70
2019-02-26T10:30:36.963Z,23.40
2019-02-26T10:31:34.243Z,23.50
2019-02-26T10:32:34.237Z,24.00
2019-02-26T10:33:37.923Z,24.80
2019-02-26T10:34:34.205Z,24.70
2019-02-26T10:35:36.147Z,25.40
2019-02-26T10:36:36.457Z,24.70
2019-02-26T10:37:36.819Z,27.50
2019-02-26T10:38:36.010Z,26.70
2019-02-26T10:39:34.151Z,27.70
2019-02-26T10:40:36.993Z,29.00
2019-02-26T10:41:36.940Z,27.30
2019-02-26T10:42:39.840Z,30.30
2019-02-26T10:43:35.109Z,30.00
2019-02-26T10:44:34.109Z,29.70
2019-02-26T10:45:38.707Z,30.10
2019-02-26T10:46:36.911Z,30.60
2019-02-26T10:47:34.642Z,31.70
2019-02-26T10:48:34.054Z,32.30
2019-02-26T10:49:34.045Z,31.90
2019-02-26T10:50:34.040Z,32.00
2019-02-26T10:51:34.025Z,32.70
2019-02-26T10:52:34.026Z,32.40
2019-02-26T10:53:34.005Z,31.30
2019-02-26T10:54:39.305Z,32.80
2019-02-26T10:55:38.659Z,31.90
2019-02-26T10:56:39.088Z,31.90
2019-02-26T10:57:36.157Z,33.30
2019-02-26T10:58:33.950Z,33.80
2019-02-26T10:59:33.942Z,32.70
2019-02-26T11:00:37.561Z,32.30
2019-02-26T11:01:33.982Z,31.40
2019-02-26T11:02:33.948Z,31.90
2019-02-26T11:03:37.890Z,31.00
2019-02-26T11:04:38.138Z,32.00
2019-02-26T11:05:34.884Z,32.40
2019-02-26T11:06:38.275Z,32.10
2019-02-26T11:07:37.526Z,30.90
2019-02-26T11:08:35.117Z,31.30
2019-02-26T11:09:33.923Z,31.20
2019-02-26T11:10:33.820Z,31.00
2019-02-26T11:11:35.640Z,30.40
2019-02-26T11:12:34.094Z,31.20
2019-02-26T11:13:33.800Z,29.90
2019-02-26T11:14:36.345Z,29.40
2019-02-26T11:15:35.925Z,30.90
2019-02-26T11:16:35.852Z,30.00
2019-02-26T11:17:33.749Z,29.60
2019-02-26T11:18:34.713Z,28.20
2019-02-26T11:19:38.292Z,29.60
2019-02-26T11:20:34.778Z,28.90
2019-02-26T11:21:33.704Z,29.60
2019-02-26T11:22:33.692Z,29.10
2019-02-26T11:23:34.586Z,29.60
2019-02-26T11:24:36.085Z,28.60
2019-02-26T11:25:33.678Z,28.10
2019-02-26T11:26:35.960Z,28.20
2019-02-26T11:27:35.774Z,28.50
2019-02-26T11:28:37.889Z,28.10
2019-02-26T11:29:36.401Z,27.50
2019-02-26T11:30:33.617Z,28.10
2019-02-26T11:31:33.596Z,28.10
2019-02-26T11:32:37.260Z,27.60
2019-02-26T11:33:34.593Z,27.30
2019-02-26T11:34:35.713Z,27.30
2019-02-26T11:35:33.558Z,27.20
2019-02-26T11:36:36.501Z,27.20
2019-02-26T11:37:33.534Z,26.70
2019-02-26T11:38:34.715Z,25.80
2019-02-26T11:39:33.510Z,27.30
2019-02-26T11:40:33.691Z,27.00
2019-02-26T11:41:35.467Z,25.60
2019-02-26T11:42:33.493Z,26.00
2019-02-26T11:43:33.469Z,25.80
2019-02-26T11:44:33.460Z,26.10
2019-02-26T11:45:35.144Z,25.20
2019-02-26T11:46:34.384Z,25.00
2019-02-26T11:47:36.353Z,25.10
2019-02-26T11:48:33.433Z,25.20
2019-02-26T11:49:34.894Z,24.40
2019-02-26T11:50:33.392Z,25.10
2019-02-26T11:51:37.027Z,24.70
2019-02-26T11:52:36.425Z,24.70
2019-02-26T11:53:33.375Z,24.40
2019-02-26T11:54:35.080Z,23.70
2019-02-26T11:55:35.105Z,24.30
2019-02-26T11:56:33.328Z,25.40
2019-02-26T11:57:37.011Z,24.50
2019-02-26T11:58:33.320Z,24.10
2019-02-26T11:59:35.273Z,23.30
2019-02-26T12:00:36.320Z,23.20
2019-02-26T12:01:35.230Z,24.20
2019-02-26T12:02:34.406Z,23.60
2019-02-26T12:03:36.203Z,23.90
2019-02-26T12:04:34.248Z,22.90
2019-02-26T12:05:35.821Z,23.00
2019-02-26T12:06:33.223Z,23.00
2019-02-26T12:07:34.838Z,22.70
2019-02-26T12:08:33.211Z,22.50
2019-02-26T12:09:37.530Z,22.30
2019-02-26T12:10:34.988Z,22.50
2019-02-26T12:11:33.173Z,21.80
2019-02-26T12:12:34.204Z,23.10
2019-02-26T12:13:33.147Z,21.60
2019-02-26T12:14:34.673Z,22.00
2019-02-26T12:15:35.784Z,21.80
2019-02-26T12:16:34.114Z,21.20
2019-02-26T12:17:33.107Z,21.30
2019-02-26T12:18:34.260Z,21.30
2019-02-26T12:19:34.466Z,21.00
2019-02-26T12:20:35.454Z,20.90
2019-02-26T12:21:34.612Z,20.50
2019-02-26T12:22:33.072Z,20.30
2019-02-26T12:23:34.508Z,20.70
2019-02-26T12:24:33.622Z,20.30
2019-02-26T12:25:33.018Z,20.20
2019-02-26T12:26:33.010Z,19.90
2019-02-26T12:27:36.004Z,19.30
2019-02-26T12:28:35.945Z,20.70
2019-02-26T12:29:32.974Z,20.30
2019-02-26T12:30:35.022Z,20.30
2019-02-26T12:31:34.519Z,20.00
2019-02-26T12:32:32.944Z,19.80
2019-02-26T12:33:32.935Z,19.40
2019-02-26T12:34:35.019Z,20.10
2019-02-26T12:35:33.854Z,18.80
2019-02-26T12:36:35.388Z,19.50
2019-02-26T12:37:32.899Z,18.80
2019-02-26T12:38:36.623Z,19.60
2019-02-26T12:39:32.910Z,19.50
2019-02-26T12:40:32.861Z,18.90
2019-02-26T12:41:35.903Z,18.40
2019-02-26T12:42:32.869Z,19.60
2019-02-26T12:43:34.031Z,18.00
2019-02-26T12:44:34.902Z,18.00
2019-02-26T12:45:37.725Z,18.40
2019-02-26T12:46:33.819Z,17.60
2019-02-26T12:47:32.785Z,18.20
2019-02-26T12:48:35.184Z,18.30
2019-02-26T12:49:35.632Z,19.20
2019-02-26T12:50:36.578Z,18.20
2019-02-26T12:51:35.450Z,18.00
2019-02-26T12:52:32.955Z,17.90
2019-02-26T12:53:35.630Z,18.20
2019-02-26T12:54:33.683Z,17.00
2019-02-26T12:55:35.108Z,18.00
2019-02-26T12:56:36.719Z,16.80
2019-02-26T12:57:32.675Z,17.20
2019-02-26T12:58:32.672Z,17.20
2019-02-26T12:59:32.666Z,16.90
2019-02-26T13:00:34.734Z,17.50
2019-02-26T13:01:33.364Z,17.10
2019-02-26T13:02:32.632Z,16.60
2019-02-26T13:03:35.163Z,16.60
2019-02-26T13:04:33.614Z,17.50
2019-02-26T13:05:35.236Z,16.40
2019-02-26T13:06:34.417Z,15.50
2019-02-26T13:07:32.581Z,15.80
2019-02-26T13:08:32.560Z,15.80
2019-02-26T13:09:32.553Z,16.10